Pagrindinis puslapis
METAR-TAF:

METAR-TAF

Oro uostai :

Nenana, Aliaska, Jungtinės Amerikos Valstijos

platuma: 64-33N, ilguma: 149-05W, Aukštis: 110 m

Dabartinis oras

Ataskaita buvo paskelbta 16 minutes, ne 10:53 UTC
Vėjas 7 kt iš Vakarų/Šiaurės Vakarų
Temperatūra -22°C
Drėgmė 64%
Slėgis 1010 hPa
Matomumas: 16.1 km
Giedras dangus

METAR: PANN 261053Z AUTO 30007KT 10SM CLR M22/M27 A2982 RMK AO2 SLP112 T12171267 TSNO

Laikas: 02:09 (11:09 UTC)


TAF: trūkstamas

Orai ataskaitas ir orų prognozės (METAR, TAF).

turimą stotys yra geltonos ir raudonos taškus žemėlapyje.

Perkelti pele per norėdami pamatyti stoties vardą.

Tada spustelėkite, norėdami matyti oro stebėjimo ir prognozės.

Norėdami pakeisti žemėlapį: spustelėkite ant žalios mygtukų su juodo kryžiaus žemyn,; žalią mygtuką su brūkšneliu, jei norite nutolinti; arba žalių rodyklių gretimoms žemėlapius.


METAR-TAF: